This is the latest recevied weather packets stored in our database for station/object K4AGR-13. If no packets are shown the sender has not sent any weather packets the latest 10 day(s).
| Time | Temp. | Humidity | Pressure | Rain* | Wind** | Luminosity | Snow |
|---|---|---|---|---|---|---|---|
| 1777713044 | 12.78° C | 96% | 1010 hPa | 1.27 mm | - | 0 W/m² | - |
| 1777712741 | 13.33° C | 96% | 1009 hPa | 7.11 mm | - | 0 W/m² | - |
| 1777712438 | 13.33° C | 96% | 1009.6 hPa | 7.87 mm | - | 0 W/m² | - |
| 1777712134 | 13.33° C | 96% | 1010.6 hPa | 3.05 mm | - | 0 W/m² | - |
| 1777711831 | 13.33° C | 96% | 1010.6 hPa | 1.27 mm | - | 0 W/m² | - |
| 1777711528 | 13.33° C | 96% | 1010.5 hPa | 3.05 mm | - | 0 W/m² | - |
| 1777711223 | 13.33° C | 97% | 1010.5 hPa | 1.78 mm | - | 0 W/m² | - |
| 1777710921 | 13.33° C | 97% | 1010.2 hPa | 4.83 mm | - | 0 W/m² | - |
| 1777710617 | 13.33° C | 97% | 1010.1 hPa | 4.83 mm | - | 0 W/m² | - |
| 1777710314 | 13.89° C | 97% | 1010.4 hPa | 3.05 mm | - | 0 W/m² | - |
| 1777710011 | 13.89° C | 97% | 1010.6 hPa | 1.27 mm | - | 0 W/m² | - |
| 1777709709 | 13.89° C | 97% | 1010.8 hPa | 1.78 mm | - | 0 W/m² | - |
| 1777709405 | 13.89° C | 97% | 1010.4 hPa | 1.78 mm | - | 0 W/m² | - |
| 1777709103 | 13.89° C | 97% | 1010.3 hPa | 1.27 mm | - | 0 W/m² | - |
| 1777708801 | 13.89° C | 97% | 1010.3 hPa | 3.05 mm | - | 0 W/m² | - |
| 1777708498 | 13.89° C | 97% | 1010.5 hPa | 6.1 mm | - | 0 W/m² | - |
| 1777708196 | 13.89° C | 97% | 1010.9 hPa | 6.1 mm | - | 0 W/m² | - |
| 1777707894 | 13.89° C | 97% | 1010.8 hPa | 4.32 mm | - | 0 W/m² | - |
| 1777707589 | 13.89° C | 97% | 1011.1 hPa | 3.05 mm | - | 0 W/m² | - |
| 1777707285 | 13.89° C | 97% | 1010.8 hPa | 6.6 mm | - | 0 W/m² | - |
| 1777706984 | 13.89° C | 97% | 1010.7 hPa | 8.89 mm | - | 0 W/m² | - |
| 1777706680 | 13.89° C | 97% | 1010.9 hPa | 10.16 mm | - | 0 W/m² | - |
| 1777706378 | 13.89° C | 97% | 1011.1 hPa | 9.65 mm | - | 0 W/m² | - |
| 1777706075 | 13.89° C | 97% | 1011.5 hPa | 4.83 mm | - | 0 W/m² | - |
| 1777705773 | 13.89° C | 97% | 1011.2 hPa | 1.27 mm | - | 0 W/m² | - |
* Rain latest hour (hover to see other rain measurements)
** Current wind speed in m/s (hover to see current wind gust speed)